South Lee, MA (01260)

3:02 AM EDT on March 27, 2015 (GMT -0400)
Devon Rd, Lee | | Change Station
CLOSE
Current Station
Personal Weather Station
Location: Lee, MA
Elevation: 1083 ft
Nearby Weather Stations

Elev 1083 ft 42.30 °N, 73.28 °W | Updated 1 second ago

Fog
Fog
35.1 °F
Feels Like 35 °F
N
0.0
Wind Variable Wind from NNW
Gusts 0.0 mph

Today
High -- | Low -- °F
--% Chance of Precip.
Yesterday
High -- | Low -- °F
Precip. -- in
6:44 AM 7:12 PM
Waxing Crescent, 50% visible
Pressure 29.68 in
Visibility 1.5 miles
Clouds Overcast 200 ft
Windchill 35 °F
Dew Point 32 °F
Humidity 90%
Rainfall 0.00 in
Snow Depth Not available.
UV 0.0 out of 12
Pollen 4.60 out of 12
Air Quality Not available.
Flu Activity Not available.
METAR KPSF 270654Z AUTO 30004KT 1 1/2SM BR OVC002 01/01 A2967 RMK AO2 SLP049 T00110011

More Conditions Fewer Conditions

Pressure 29.68 in
Visibility 1.5 miles
Clouds Overcast 200 ft
Windchill 35 °F
Dew Point 32 °F
Humidity 90%
Rainfall 0.00 in
Snow Depth Not available.
UV 0.0 out of 12
Pollen 4.60 out of 12
Air Quality Not available.
Flu Activity Not available.
METAR KPSF 270654Z AUTO 30004KT 1 1/2SM BR OVC002 01/01 A2967 RMK AO2 SLP049 T00110011

More Conditions Fewer Conditions

10-Day Weather Forecast

Almanac

Astronomy

Mar. 27, 2015 Rise Set
Actual Time
Civil Twilight
Nautical Twilight
Astronomical Twilight
Moon
Length of Visible Light
Length of Day
Tomorrow will be .
, % of the Moon is Illuminated

Today's Extremes

State Highs State Lows

Community

WunderPhotos

Upload Photos

1,808,700 photos uploaded!

WunderBlogs® & News

Nearby

Air Quality

  Air Quality AQ Index Pollutant
Not available.

Snow Depth

Station Depth Elevation

Earthquake Activity

City Distance Mag. Time & Date
Minimum magnitude displayed is 2.5.

Coastal Water Temperatures

Place Temperature

Stations

Nearby Weather Stations

Station Location Temp. Windchill Dew Point Humidity Wind Precip. Elev Updated Type